sensor_id;sensor_type;location;lat;lon;timestamp;P1;durP1;ratioP1;P2;durP2;ratioP2
11931;SDS011;6025;51.368;6.788;2023-03-21T00:03:16;6.45;;;3.28;;
11931;SDS011;6025;51.368;6.788;2023-03-21T00:08:09;9.77;;;3.30;;
11931;SDS011;6025;51.368;6.788;2023-03-21T00:13:01;9.75;;;3.10;;
11931;SDS011;6025;51.368;6.788;2023-03-21T00:17:53;8.98;;;3.40;;
11931;SDS011;6025;51.368;6.788;2023-03-21T00:22:47;7.65;;;3.40;;
11931;SDS011;6025;51.368;6.788;2023-03-21T00:27:40;7.82;;;3.60;;
11931;SDS011;6025;51.368;6.788;2023-03-21T00:32:31;7.07;;;3.25;;
11931;SDS011;6025;51.368;6.788;2023-03-21T00:37:23;7.50;;;3.33;;
11931;SDS011;6025;51.368;6.788;2023-03-21T00:42:17;8.20;;;3.47;;
11931;SDS011;6025;51.368;6.788;2023-03-21T00:47:10;8.65;;;3.75;;
11931;SDS011;6025;51.368;6.788;2023-03-21T00:52:02;8.40;;;3.55;;
11931;SDS011;6025;51.368;6.788;2023-03-21T00:56:55;6.32;;;3.50;;
11931;SDS011;6025;51.368;6.788;2023-03-21T01:01:47;7.22;;;3.70;;
11931;SDS011;6025;51.368;6.788;2023-03-21T01:06:40;9.20;;;4.50;;
11931;SDS011;6025;51.368;6.788;2023-03-21T01:11:33;7.68;;;3.53;;
11931;SDS011;6025;51.368;6.788;2023-03-21T01:16:25;6.30;;;3.40;;
11931;SDS011;6025;51.368;6.788;2023-03-21T01:21:17;7.10;;;3.83;;
11931;SDS011;6025;51.368;6.788;2023-03-21T01:26:10;9.70;;;4.32;;
11931;SDS011;6025;51.368;6.788;2023-03-21T01:31:03;14.18;;;4.25;;
11931;SDS011;6025;51.368;6.788;2023-03-21T01:35:55;10.57;;;3.97;;
11931;SDS011;6025;51.368;6.788;2023-03-21T01:40:48;8.38;;;4.38;;
11931;SDS011;6025;51.368;6.788;2023-03-21T01:51:01;10.32;;;4.30;;
11931;SDS011;6025;51.368;6.788;2023-03-21T01:55:53;14.40;;;4.50;;
11931;SDS011;6025;51.368;6.788;2023-03-21T02:00:45;10.48;;;4.65;;
11931;SDS011;6025;51.368;6.788;2023-03-21T02:05:39;10.20;;;4.50;;
11931;SDS011;6025;51.368;6.788;2023-03-21T02:10:34;11.05;;;4.90;;
11931;SDS011;6025;51.368;6.788;2023-03-21T02:15:27;12.05;;;4.97;;
11931;SDS011;6025;51.368;6.788;2023-03-21T02:20:33;7.43;;;5.03;;
11931;SDS011;6025;51.368;6.788;2023-03-21T02:25:55;11.82;;;5.13;;
11931;SDS011;6025;51.368;6.788;2023-03-21T02:36:15;10.25;;;5.05;;
11931;SDS011;6025;51.368;6.788;2023-03-21T02:41:11;11.95;;;4.80;;
11931;SDS011;6025;51.368;6.788;2023-03-21T02:46:07;9.07;;;4.75;;
11931;SDS011;6025;51.368;6.788;2023-03-21T02:51:00;9.50;;;5.00;;
11931;SDS011;6025;51.368;6.788;2023-03-21T02:55:53;12.50;;;5.57;;
11931;SDS011;6025;51.368;6.788;2023-03-21T03:00:46;11.25;;;5.32;;
11931;SDS011;6025;51.368;6.788;2023-03-21T03:05:39;12.15;;;5.75;;
11931;SDS011;6025;51.368;6.788;2023-03-21T03:10:35;9.82;;;5.20;;
11931;SDS011;6025;51.368;6.788;2023-03-21T03:15:34;12.75;;;5.15;;
11931;SDS011;6025;51.368;6.788;2023-03-21T03:20:31;10.70;;;5.32;;
11931;SDS011;6025;51.368;6.788;2023-03-21T03:25:29;10.48;;;5.28;;
11931;SDS011;6025;51.368;6.788;2023-03-21T03:30:23;12.32;;;5.45;;
11931;SDS011;6025;51.368;6.788;2023-03-21T03:35:17;12.77;;;5.38;;
11931;SDS011;6025;51.368;6.788;2023-03-21T03:40:12;10.80;;;5.00;;
11931;SDS011;6025;51.368;6.788;2023-03-21T03:45:06;12.27;;;5.35;;
11931;SDS011;6025;51.368;6.788;2023-03-21T03:50:00;10.20;;;5.82;;
11931;SDS011;6025;51.368;6.788;2023-03-21T03:54:53;10.13;;;4.80;;
11931;SDS011;6025;51.368;6.788;2023-03-21T03:59:46;12.88;;;4.78;;
11931;SDS011;6025;51.368;6.788;2023-03-21T04:04:38;13.65;;;5.47;;
11931;SDS011;6025;51.368;6.788;2023-03-21T04:09:31;8.02;;;4.90;;
11931;SDS011;6025;51.368;6.788;2023-03-21T04:14:22;9.77;;;4.70;;
11931;SDS011;6025;51.368;6.788;2023-03-21T04:19:15;8.75;;;4.65;;
11931;SDS011;6025;51.368;6.788;2023-03-21T04:24:07;8.52;;;4.88;;
11931;SDS011;6025;51.368;6.788;2023-03-21T04:29:01;8.95;;;4.88;;
11931;SDS011;6025;51.368;6.788;2023-03-21T04:33:52;10.98;;;4.90;;
11931;SDS011;6025;51.368;6.788;2023-03-21T04:38:46;11.73;;;4.75;;
11931;SDS011;6025;51.368;6.788;2023-03-21T04:43:38;10.00;;;5.40;;
11931;SDS011;6025;51.368;6.788;2023-03-21T04:48:29;10.52;;;4.72;;
11931;SDS011;6025;51.368;6.788;2023-03-21T04:53:21;11.85;;;4.97;;
11931;SDS011;6025;51.368;6.788;2023-03-21T04:58:13;8.77;;;4.93;;
11931;SDS011;6025;51.368;6.788;2023-03-21T05:03:05;8.95;;;4.60;;
11931;SDS011;6025;51.368;6.788;2023-03-21T05:07:58;7.90;;;4.53;;
11931;SDS011;6025;51.368;6.788;2023-03-21T05:12:49;9.90;;;4.78;;
11931;SDS011;6025;51.368;6.788;2023-03-21T05:17:42;12.93;;;4.97;;
11931;SDS011;6025;51.368;6.788;2023-03-21T05:22:37;8.57;;;4.40;;
11931;SDS011;6025;51.368;6.788;2023-03-21T05:27:30;8.45;;;4.88;;
11931;SDS011;6025;51.368;6.788;2023-03-21T05:32:25;10.95;;;4.72;;
11931;SDS011;6025;51.368;6.788;2023-03-21T05:37:18;10.02;;;4.75;;
11931;SDS011;6025;51.368;6.788;2023-03-21T05:42:09;9.07;;;4.43;;
11931;SDS011;6025;51.368;6.788;2023-03-21T05:47:01;9.73;;;4.90;;
11931;SDS011;6025;51.368;6.788;2023-03-21T05:51:53;11.23;;;4.95;;
11931;SDS011;6025;51.368;6.788;2023-03-21T05:56:46;10.35;;;4.80;;
11931;SDS011;6025;51.368;6.788;2023-03-21T06:01:38;8.75;;;4.95;;
11931;SDS011;6025;51.368;6.788;2023-03-21T06:06:29;8.90;;;4.45;;
11931;SDS011;6025;51.368;6.788;2023-03-21T06:11:22;9.57;;;4.25;;
11931;SDS011;6025;51.368;6.788;2023-03-21T06:16:17;9.77;;;4.63;;
11931;SDS011;6025;51.368;6.788;2023-03-21T06:21:09;10.13;;;5.03;;
11931;SDS011;6025;51.368;6.788;2023-03-21T06:26:00;18.17;;;5.65;;
11931;SDS011;6025;51.368;6.788;2023-03-21T06:30:52;9.05;;;4.68;;
11931;SDS011;6025;51.368;6.788;2023-03-21T06:35:49;6.95;;;4.47;;
11931;SDS011;6025;51.368;6.788;2023-03-21T06:40:41;9.32;;;4.70;;
11931;SDS011;6025;51.368;6.788;2023-03-21T06:45:32;13.45;;;5.30;;
11931;SDS011;6025;51.368;6.788;2023-03-21T06:50:24;8.80;;;4.38;;
11931;SDS011;6025;51.368;6.788;2023-03-21T06:55:17;10.20;;;4.65;;
11931;SDS011;6025;51.368;6.788;2023-03-21T07:00:15;10.88;;;4.82;;
11931;SDS011;6025;51.368;6.788;2023-03-21T07:05:08;9.73;;;5.18;;
11931;SDS011;6025;51.368;6.788;2023-03-21T07:09:59;11.65;;;5.50;;
11931;SDS011;6025;51.368;6.788;2023-03-21T07:14:52;9.52;;;5.38;;
11931;SDS011;6025;51.368;6.788;2023-03-21T07:19:44;14.48;;;5.20;;
11931;SDS011;6025;51.368;6.788;2023-03-21T07:24:35;11.45;;;5.35;;
11931;SDS011;6025;51.368;6.788;2023-03-21T07:29:27;7.65;;;4.30;;
11931;SDS011;6025;51.368;6.788;2023-03-21T07:34:20;11.35;;;4.63;;
11931;SDS011;6025;51.368;6.788;2023-03-21T07:39:11;10.85;;;4.53;;
11931;SDS011;6025;51.368;6.788;2023-03-21T07:44:03;8.85;;;4.07;;
11931;SDS011;6025;51.368;6.788;2023-03-21T07:48:54;8.60;;;4.05;;
11931;SDS011;6025;51.368;6.788;2023-03-21T07:53:47;8.55;;;3.67;;
11931;SDS011;6025;51.368;6.788;2023-03-21T07:58:39;12.02;;;4.55;;
11931;SDS011;6025;51.368;6.788;2023-03-21T08:03:30;7.55;;;3.60;;
11931;SDS011;6025;51.368;6.788;2023-03-21T08:08:22;9.23;;;4.07;;
11931;SDS011;6025;51.368;6.788;2023-03-21T08:13:15;9.18;;;4.25;;
11931;SDS011;6025;51.368;6.788;2023-03-21T08:18:07;8.40;;;4.47;;
11931;SDS011;6025;51.368;6.788;2023-03-21T08:22:59;9.88;;;4.45;;
11931;SDS011;6025;51.368;6.788;2023-03-21T08:27:50;7.82;;;4.22;;
11931;SDS011;6025;51.368;6.788;2023-03-21T08:32:43;9.68;;;4.22;;
11931;SDS011;6025;51.368;6.788;2023-03-21T08:37:35;9.60;;;5.00;;
11931;SDS011;6025;51.368;6.788;2023-03-21T08:42:26;13.73;;;5.43;;
11931;SDS011;6025;51.368;6.788;2023-03-21T08:47:18;10.38;;;5.22;;
11931;SDS011;6025;51.368;6.788;2023-03-21T08:52:11;10.23;;;5.32;;
11931;SDS011;6025;51.368;6.788;2023-03-21T08:57:02;10.88;;;5.40;;
11931;SDS011;6025;51.368;6.788;2023-03-21T09:01:54;9.07;;;5.57;;
11931;SDS011;6025;51.368;6.788;2023-03-21T09:06:45;9.13;;;5.25;;
11931;SDS011;6025;51.368;6.788;2023-03-21T09:11:40;10.00;;;5.32;;
11931;SDS011;6025;51.368;6.788;2023-03-21T09:16:32;8.98;;;5.00;;
11931;SDS011;6025;51.368;6.788;2023-03-21T09:21:25;10.02;;;5.32;;
11931;SDS011;6025;51.368;6.788;2023-03-21T09:26:17;10.23;;;5.80;;
11931;SDS011;6025;51.368;6.788;2023-03-21T09:31:11;10.15;;;5.80;;
11931;SDS011;6025;51.368;6.788;2023-03-21T09:36:05;9.93;;;5.60;;
11931;SDS011;6025;51.368;6.788;2023-03-21T09:41:03;10.90;;;6.05;;
11931;SDS011;6025;51.368;6.788;2023-03-21T09:46:06;11.57;;;6.15;;
11931;SDS011;6025;51.368;6.788;2023-03-21T09:51:02;10.43;;;6.47;;
11931;SDS011;6025;51.368;6.788;2023-03-21T09:55:55;10.00;;;6.22;;
11931;SDS011;6025;51.368;6.788;2023-03-21T10:00:48;10.32;;;5.57;;
11931;SDS011;6025;51.368;6.788;2023-03-21T10:05:42;12.45;;;6.35;;
11931;SDS011;6025;51.368;6.788;2023-03-21T10:10:36;11.85;;;5.93;;
11931;SDS011;6025;51.368;6.788;2023-03-21T10:15:31;9.25;;;6.30;;
11931;SDS011;6025;51.368;6.788;2023-03-21T10:20:23;11.13;;;5.65;;
11931;SDS011;6025;51.368;6.788;2023-03-21T10:25:17;12.15;;;5.28;;
11931;SDS011;6025;51.368;6.788;2023-03-21T10:30:17;9.75;;;5.18;;
11931;SDS011;6025;51.368;6.788;2023-03-21T10:35:15;14.20;;;5.75;;
11931;SDS011;6025;51.368;6.788;2023-03-21T10:40:09;12.48;;;5.82;;
11931;SDS011;6025;51.368;6.788;2023-03-21T10:45:05;10.05;;;5.72;;
11931;SDS011;6025;51.368;6.788;2023-03-21T10:50:07;9.07;;;6.13;;
11931;SDS011;6025;51.368;6.788;2023-03-21T10:55:04;12.05;;;6.22;;
11931;SDS011;6025;51.368;6.788;2023-03-21T10:59:59;9.05;;;5.60;;
11931;SDS011;6025;51.368;6.788;2023-03-21T11:05:04;8.32;;;5.68;;
11931;SDS011;6025;51.368;6.788;2023-03-21T11:09:59;9.02;;;5.30;;
11931;SDS011;6025;51.368;6.788;2023-03-21T11:14:51;8.93;;;4.63;;
11931;SDS011;6025;51.368;6.788;2023-03-21T11:19:46;7.45;;;4.45;;
11931;SDS011;6025;51.368;6.788;2023-03-21T11:24:39;8.75;;;4.68;;
11931;SDS011;6025;51.368;6.788;2023-03-21T11:29:32;8.43;;;4.57;;
11931;SDS011;6025;51.368;6.788;2023-03-21T11:34:26;5.25;;;3.63;;
11931;SDS011;6025;51.368;6.788;2023-03-21T11:39:27;6.30;;;3.70;;
11931;SDS011;6025;51.368;6.788;2023-03-21T11:44:27;5.88;;;3.65;;
11931;SDS011;6025;51.368;6.788;2023-03-21T11:49:21;5.47;;;3.35;;
11931;SDS011;6025;51.368;6.788;2023-03-21T11:54:14;6.43;;;3.40;;
11931;SDS011;6025;51.368;6.788;2023-03-21T11:59:28;6.07;;;3.40;;
11931;SDS011;6025;51.368;6.788;2023-03-21T12:04:28;7.85;;;3.53;;
11931;SDS011;6025;51.368;6.788;2023-03-21T12:09:33;6.55;;;3.47;;
11931;SDS011;6025;51.368;6.788;2023-03-21T12:14:31;9.23;;;3.20;;
11931;SDS011;6025;51.368;6.788;2023-03-21T12:19:32;6.82;;;2.92;;
11931;SDS011;6025;51.368;6.788;2023-03-21T12:24:32;6.18;;;3.13;;
11931;SDS011;6025;51.368;6.788;2023-03-21T12:29:35;8.25;;;3.50;;
11931;SDS011;6025;51.368;6.788;2023-03-21T12:39:59;8.05;;;4.18;;
11931;SDS011;6025;51.368;6.788;2023-03-21T12:45:02;6.45;;;3.47;;
11931;SDS011;6025;51.368;6.788;2023-03-21T12:49:56;7.35;;;3.53;;
11931;SDS011;6025;51.368;6.788;2023-03-21T12:54:51;6.55;;;3.22;;
11931;SDS011;6025;51.368;6.788;2023-03-21T12:59:46;6.55;;;3.30;;
11931;SDS011;6025;51.368;6.788;2023-03-21T13:04:43;6.07;;;3.40;;
11931;SDS011;6025;51.368;6.788;2023-03-21T13:09:38;5.60;;;3.05;;
11931;SDS011;6025;51.368;6.788;2023-03-21T13:14:32;4.20;;;3.13;;
11931;SDS011;6025;51.368;6.788;2023-03-21T13:19:27;6.47;;;3.08;;
11931;SDS011;6025;51.368;6.788;2023-03-21T13:24:27;5.68;;;3.10;;
11931;SDS011;6025;51.368;6.788;2023-03-21T13:29:25;5.35;;;3.22;;
11931;SDS011;6025;51.368;6.788;2023-03-21T13:34:19;6.20;;;3.33;;
11931;SDS011;6025;51.368;6.788;2023-03-21T13:39:15;5.88;;;3.08;;
11931;SDS011;6025;51.368;6.788;2023-03-21T13:44:18;5.38;;;3.30;;
11931;SDS011;6025;51.368;6.788;2023-03-21T13:49:13;4.95;;;3.38;;
11931;SDS011;6025;51.368;6.788;2023-03-21T13:54:15;5.03;;;2.95;;
11931;SDS011;6025;51.368;6.788;2023-03-21T13:59:09;5.85;;;3.10;;
11931;SDS011;6025;51.368;6.788;2023-03-21T14:04:05;4.88;;;3.10;;
11931;SDS011;6025;51.368;6.788;2023-03-21T14:09:02;5.45;;;3.13;;
11931;SDS011;6025;51.368;6.788;2023-03-21T14:13:54;7.00;;;3.10;;
11931;SDS011;6025;51.368;6.788;2023-03-21T14:18:49;6.53;;;2.95;;
11931;SDS011;6025;51.368;6.788;2023-03-21T14:23:44;8.10;;;2.85;;
11931;SDS011;6025;51.368;6.788;2023-03-21T14:28:35;5.45;;;3.45;;
11931;SDS011;6025;51.368;6.788;2023-03-21T14:33:27;6.72;;;3.38;;
11931;SDS011;6025;51.368;6.788;2023-03-21T14:38:22;5.20;;;2.92;;
11931;SDS011;6025;51.368;6.788;2023-03-21T14:43:16;5.32;;;3.05;;
11931;SDS011;6025;51.368;6.788;2023-03-21T14:48:10;4.15;;;2.58;;
11931;SDS011;6025;51.368;6.788;2023-03-21T14:53:05;5.55;;;3.08;;
11931;SDS011;6025;51.368;6.788;2023-03-21T14:57:57;6.60;;;3.20;;
11931;SDS011;6025;51.368;6.788;2023-03-21T15:02:50;6.28;;;3.00;;
11931;SDS011;6025;51.368;6.788;2023-03-21T15:07:42;4.45;;;2.83;;
11931;SDS011;6025;51.368;6.788;2023-03-21T15:12:48;4.70;;;2.90;;
11931;SDS011;6025;51.368;6.788;2023-03-21T15:17:40;7.90;;;3.15;;
11931;SDS011;6025;51.368;6.788;2023-03-21T15:22:34;3.97;;;3.05;;
11931;SDS011;6025;51.368;6.788;2023-03-21T15:27:29;5.38;;;2.90;;
11931;SDS011;6025;51.368;6.788;2023-03-21T15:32:23;5.25;;;2.88;;
11931;SDS011;6025;51.368;6.788;2023-03-21T15:37:17;7.50;;;2.88;;
11931;SDS011;6025;51.368;6.788;2023-03-21T15:42:23;6.82;;;3.03;;
11931;SDS011;6025;51.368;6.788;2023-03-21T15:52:28;5.55;;;2.80;;
11931;SDS011;6025;51.368;6.788;2023-03-21T15:57:24;5.50;;;2.90;;
11931;SDS011;6025;51.368;6.788;2023-03-21T16:02:19;4.45;;;2.63;;
11931;SDS011;6025;51.368;6.788;2023-03-21T16:07:13;6.38;;;3.05;;
11931;SDS011;6025;51.368;6.788;2023-03-21T16:12:08;7.03;;;3.53;;
11931;SDS011;6025;51.368;6.788;2023-03-21T16:17:11;6.22;;;3.22;;
11931;SDS011;6025;51.368;6.788;2023-03-21T16:22:07;5.35;;;2.83;;
11931;SDS011;6025;51.368;6.788;2023-03-21T16:26:59;6.07;;;3.03;;
11931;SDS011;6025;51.368;6.788;2023-03-21T16:31:51;4.18;;;3.28;;
11931;SDS011;6025;51.368;6.788;2023-03-21T16:36:46;4.57;;;3.17;;
11931;SDS011;6025;51.368;6.788;2023-03-21T16:41:38;6.68;;;3.30;;
11931;SDS011;6025;51.368;6.788;2023-03-21T16:46:29;7.43;;;3.30;;
11931;SDS011;6025;51.368;6.788;2023-03-21T16:51:21;5.70;;;3.20;;
11931;SDS011;6025;51.368;6.788;2023-03-21T16:56:18;6.20;;;3.08;;
11931;SDS011;6025;51.368;6.788;2023-03-21T17:01:12;5.70;;;3.08;;
11931;SDS011;6025;51.368;6.788;2023-03-21T17:06:04;5.45;;;3.10;;
11931;SDS011;6025;51.368;6.788;2023-03-21T17:10:56;8.02;;;3.38;;
11931;SDS011;6025;51.368;6.788;2023-03-21T17:15:51;5.40;;;3.40;;
11931;SDS011;6025;51.368;6.788;2023-03-21T17:20:43;7.53;;;3.42;;
11931;SDS011;6025;51.368;6.788;2023-03-21T17:25:35;6.13;;;3.55;;
11931;SDS011;6025;51.368;6.788;2023-03-21T17:30:27;4.82;;;3.10;;
11931;SDS011;6025;51.368;6.788;2023-03-21T17:35:22;8.20;;;2.75;;
11931;SDS011;6025;51.368;6.788;2023-03-21T17:40:13;5.65;;;3.92;;
11931;SDS011;6025;51.368;6.788;2023-03-21T17:45:06;6.60;;;3.22;;
11931;SDS011;6025;51.368;6.788;2023-03-21T17:49:58;5.45;;;2.90;;
11931;SDS011;6025;51.368;6.788;2023-03-21T17:54:51;7.88;;;3.40;;
11931;SDS011;6025;51.368;6.788;2023-03-21T17:59:42;12.82;;;3.60;;
11931;SDS011;6025;51.368;6.788;2023-03-21T18:04:34;6.28;;;3.63;;
11931;SDS011;6025;51.368;6.788;2023-03-21T18:09:25;6.78;;;3.65;;
11931;SDS011;6025;51.368;6.788;2023-03-21T18:14:18;6.57;;;3.25;;
11931;SDS011;6025;51.368;6.788;2023-03-21T18:19:11;8.13;;;3.67;;
11931;SDS011;6025;51.368;6.788;2023-03-21T18:24:03;7.93;;;3.65;;
11931;SDS011;6025;51.368;6.788;2023-03-21T18:28:55;4.88;;;3.00;;
11931;SDS011;6025;51.368;6.788;2023-03-21T18:33:48;7.85;;;3.80;;
11931;SDS011;6025;51.368;6.788;2023-03-21T18:38:40;5.85;;;3.20;;
11931;SDS011;6025;51.368;6.788;2023-03-21T18:43:32;6.88;;;3.47;;
11931;SDS011;6025;51.368;6.788;2023-03-21T18:48:23;11.60;;;7.00;;
11931;SDS011;6025;51.368;6.788;2023-03-21T18:53:16;6.00;;;4.20;;
11931;SDS011;6025;51.368;6.788;2023-03-21T18:58:08;5.32;;;3.38;;
11931;SDS011;6025;51.368;6.788;2023-03-21T19:02:59;7.50;;;3.83;;
11931;SDS011;6025;51.368;6.788;2023-03-21T19:07:52;5.95;;;3.40;;
11931;SDS011;6025;51.368;6.788;2023-03-21T19:12:45;4.32;;;3.10;;
11931;SDS011;6025;51.368;6.788;2023-03-21T19:17:37;5.10;;;3.35;;
11931;SDS011;6025;51.368;6.788;2023-03-21T19:22:28;7.15;;;3.55;;
11931;SDS011;6025;51.368;6.788;2023-03-21T19:27:20;6.20;;;3.63;;
11931;SDS011;6025;51.368;6.788;2023-03-21T19:32:13;5.35;;;3.60;;
11931;SDS011;6025;51.368;6.788;2023-03-21T19:37:05;8.40;;;3.65;;
11931;SDS011;6025;51.368;6.788;2023-03-21T19:41:57;3.55;;;3.10;;
11931;SDS011;6025;51.368;6.788;2023-03-21T19:46:48;5.65;;;3.83;;
11931;SDS011;6025;51.368;6.788;2023-03-21T19:51:42;6.07;;;3.50;;
11931;SDS011;6025;51.368;6.788;2023-03-21T19:56:34;5.82;;;3.70;;
11931;SDS011;6025;51.368;6.788;2023-03-21T20:01:25;6.03;;;3.55;;
11931;SDS011;6025;51.368;6.788;2023-03-21T20:06:17;7.32;;;3.92;;
11931;SDS011;6025;51.368;6.788;2023-03-21T20:11:12;7.47;;;4.22;;
11931;SDS011;6025;51.368;6.788;2023-03-21T20:16:05;5.07;;;3.97;;
11931;SDS011;6025;51.368;6.788;2023-03-21T20:20:57;7.28;;;3.85;;
11931;SDS011;6025;51.368;6.788;2023-03-21T20:25:48;5.55;;;4.32;;
11931;SDS011;6025;51.368;6.788;2023-03-21T20:30:44;7.05;;;4.63;;
11931;SDS011;6025;51.368;6.788;2023-03-21T20:35:37;10.07;;;4.90;;
11931;SDS011;6025;51.368;6.788;2023-03-21T20:40:29;8.68;;;4.63;;
11931;SDS011;6025;51.368;6.788;2023-03-21T20:45:21;6.78;;;4.55;;
11931;SDS011;6025;51.368;6.788;2023-03-21T20:50:14;6.20;;;4.20;;
11931;SDS011;6025;51.368;6.788;2023-03-21T20:55:10;7.28;;;4.25;;
11931;SDS011;6025;51.368;6.788;2023-03-21T21:00:02;7.72;;;4.00;;
11931;SDS011;6025;51.368;6.788;2023-03-21T21:04:57;7.18;;;4.00;;
11931;SDS011;6025;51.368;6.788;2023-03-21T21:09:50;5.72;;;3.58;;
11931;SDS011;6025;51.368;6.788;2023-03-21T21:14:44;6.68;;;4.05;;
11931;SDS011;6025;51.368;6.788;2023-03-21T21:19:37;8.32;;;4.75;;
11931;SDS011;6025;51.368;6.788;2023-03-21T21:24:28;6.95;;;3.40;;
11931;SDS011;6025;51.368;6.788;2023-03-21T21:29:22;6.70;;;4.05;;
11931;SDS011;6025;51.368;6.788;2023-03-21T21:34:14;6.18;;;3.67;;
11931;SDS011;6025;51.368;6.788;2023-03-21T21:39:07;8.38;;;3.95;;
11931;SDS011;6025;51.368;6.788;2023-03-21T21:43:58;7.63;;;3.92;;
11931;SDS011;6025;51.368;6.788;2023-03-21T21:48:52;6.82;;;4.07;;
11931;SDS011;6025;51.368;6.788;2023-03-21T21:53:43;4.03;;;3.17;;
11931;SDS011;6025;51.368;6.788;2023-03-21T21:58:35;5.18;;;3.17;;
11931;SDS011;6025;51.368;6.788;2023-03-21T22:03:27;7.35;;;3.20;;
11931;SDS011;6025;51.368;6.788;2023-03-21T22:08:31;6.93;;;3.40;;
11931;SDS011;6025;51.368;6.788;2023-03-21T22:13:23;5.43;;;2.85;;
11931;SDS011;6025;51.368;6.788;2023-03-21T22:18:14;5.63;;;2.85;;
11931;SDS011;6025;51.368;6.788;2023-03-21T22:23:06;4.53;;;3.00;;
11931;SDS011;6025;51.368;6.788;2023-03-21T22:27:59;6.07;;;3.13;;
11931;SDS011;6025;51.368;6.788;2023-03-21T22:32:51;5.53;;;3.38;;
11931;SDS011;6025;51.368;6.788;2023-03-21T22:37:42;5.50;;;2.95;;
11931;SDS011;6025;51.368;6.788;2023-03-21T22:42:34;6.70;;;3.28;;
11931;SDS011;6025;51.368;6.788;2023-03-21T22:47:27;5.82;;;2.90;;
11931;SDS011;6025;51.368;6.788;2023-03-21T22:52:19;7.28;;;3.40;;
11931;SDS011;6025;51.368;6.788;2023-03-21T22:57:11;7.03;;;3.58;;
11931;SDS011;6025;51.368;6.788;2023-03-21T23:02:03;6.57;;;3.33;;
11931;SDS011;6025;51.368;6.788;2023-03-21T23:06:56;4.53;;;3.33;;
11931;SDS011;6025;51.368;6.788;2023-03-21T23:11:47;4.55;;;2.95;;
11931;SDS011;6025;51.368;6.788;2023-03-21T23:16:39;5.53;;;3.50;;
11931;SDS011;6025;51.368;6.788;2023-03-21T23:21:31;5.28;;;3.42;;
11931;SDS011;6025;51.368;6.788;2023-03-21T23:26:25;7.22;;;3.50;;
11931;SDS011;6025;51.368;6.788;2023-03-21T23:31:18;4.53;;;3.35;;
11931;SDS011;6025;51.368;6.788;2023-03-21T23:36:11;5.72;;;3.33;;
11931;SDS011;6025;51.368;6.788;2023-03-21T23:41:05;5.43;;;3.70;;
11931;SDS011;6025;51.368;6.788;2023-03-21T23:45:58;4.95;;;3.20;;
11931;SDS011;6025;51.368;6.788;2023-03-21T23:50:50;4.70;;;3.67;;
11931;SDS011;6025;51.368;6.788;2023-03-21T23:55:42;5.30;;;3.33;;
